sensor_id;sensor_type;location;lat;lon;timestamp;temperature;humidity
13375;DHT22;6756;51.354;15.754;2022-08-18T00:00:46;18.10;1.00
13375;DHT22;6756;51.354;15.754;2022-08-18T00:04:48;18.00;1.00
13375;DHT22;6756;51.354;15.754;2022-08-18T00:08:48;18.00;1.00
13375;DHT22;6756;51.354;15.754;2022-08-18T00:12:49;18.00;1.00
13375;DHT22;6756;51.354;15.754;2022-08-18T00:16:52;17.90;1.00
13375;DHT22;6756;51.354;15.754;2022-08-18T00:20:53;17.80;93.80
13375;DHT22;6756;51.354;15.754;2022-08-18T00:24:56;17.70;99.90
13375;DHT22;6756;51.354;15.754;2022-08-18T00:28:57;17.70;99.90
13375;DHT22;6756;51.354;15.754;2022-08-18T00:32:59;17.70;1.00
13375;DHT22;6756;51.354;15.754;2022-08-18T00:37:00;17.70;99.90
13375;DHT22;6756;51.354;15.754;2022-08-18T00:41:01;17.70;99.90
13375;DHT22;6756;51.354;15.754;2022-08-18T00:45:04;17.70;99.90
13375;DHT22;6756;51.354;15.754;2022-08-18T00:49:05;17.70;99.90
13375;DHT22;6756;51.354;15.754;2022-08-18T00:53:34;17.70;99.90
13375;DHT22;6756;51.354;15.754;2022-08-18T00:57:34;17.60;1.00
13375;DHT22;6756;51.354;15.754;2022-08-18T01:01:35;17.60;1.00
13375;DHT22;6756;51.354;15.754;2022-08-18T01:05:44;17.50;99.90
13375;DHT22;6756;51.354;15.754;2022-08-18T01:09:48;17.40;1.00
13375;DHT22;6756;51.354;15.754;2022-08-18T01:13:50;17.30;65.80
13375;DHT22;6756;51.354;15.754;2022-08-18T01:17:54;17.20;99.90
13375;DHT22;6756;51.354;15.754;2022-08-18T01:26:45;17.20;99.90
13375;DHT22;6756;51.354;15.754;2022-08-18T01:30:51;17.10;94.70
13375;DHT22;6756;51.354;15.754;2022-08-18T01:34:52;17.20;1.00
13375;DHT22;6756;51.354;15.754;2022-08-18T01:38:56;17.20;1.00
13375;DHT22;6756;51.354;15.754;2022-08-18T01:42:57;17.20;99.90
13375;DHT22;6756;51.354;15.754;2022-08-18T01:46:58;17.10;1.00
13375;DHT22;6756;51.354;15.754;2022-08-18T01:51:02;17.10;99.90
13375;DHT22;6756;51.354;15.754;2022-08-18T01:55:04;17.00;1.00
13375;DHT22;6756;51.354;15.754;2022-08-18T01:59:09;17.00;99.90
13375;DHT22;6756;51.354;15.754;2022-08-18T02:03:13;17.00;99.90
13375;DHT22;6756;51.354;15.754;2022-08-18T02:07:14;17.00;99.90
13375;DHT22;6756;51.354;15.754;2022-08-18T02:11:15;16.90;99.90
13375;DHT22;6756;51.354;15.754;2022-08-18T02:15:16;16.90;1.00
13375;DHT22;6756;51.354;15.754;2022-08-18T02:19:17;16.80;97.60
13375;DHT22;6756;51.354;15.754;2022-08-18T02:23:18;16.80;99.90
13375;DHT22;6756;51.354;15.754;2022-08-18T02:27:18;16.80;99.90
13375;DHT22;6756;51.354;15.754;2022-08-18T02:31:21;16.70;99.90
13375;DHT22;6756;51.354;15.754;2022-08-18T02:35:22;16.60;99.90
13375;DHT22;6756;51.354;15.754;2022-08-18T02:39:23;16.60;99.90
13375;DHT22;6756;51.354;15.754;2022-08-18T02:43:24;16.50;1.00
13375;DHT22;6756;51.354;15.754;2022-08-18T02:47:25;16.50;1.00
13375;DHT22;6756;51.354;15.754;2022-08-18T02:51:26;16.50;1.00
13375;DHT22;6756;51.354;15.754;2022-08-18T02:55:27;16.50;1.00
13375;DHT22;6756;51.354;15.754;2022-08-18T02:59:28;16.50;1.00
13375;DHT22;6756;51.354;15.754;2022-08-18T03:03:30;16.50;1.00
13375;DHT22;6756;51.354;15.754;2022-08-18T03:07:32;16.50;1.00
13375;DHT22;6756;51.354;15.754;2022-08-18T03:11:33;16.50;1.00
13375;DHT22;6756;51.354;15.754;2022-08-18T03:15:33;16.40;1.00
13375;DHT22;6756;51.354;15.754;2022-08-18T03:19:35;16.30;1.00
13375;DHT22;6756;51.354;15.754;2022-08-18T03:23:36;16.30;1.00
13375;DHT22;6756;51.354;15.754;2022-08-18T03:27:39;16.20;1.00
13375;DHT22;6756;51.354;15.754;2022-08-18T03:31:42;16.20;27.80
13375;DHT22;6756;51.354;15.754;2022-08-18T03:35:42;16.20;99.90
13375;DHT22;6756;51.354;15.754;2022-08-18T03:39:43;16.20;99.90
13375;DHT22;6756;51.354;15.754;2022-08-18T03:43:44;16.20;99.90
13375;DHT22;6756;51.354;15.754;2022-08-18T03:47:45;16.30;99.90
13375;DHT22;6756;51.354;15.754;2022-08-18T03:51:47;16.30;99.90
13375;DHT22;6756;51.354;15.754;2022-08-18T03:55:48;16.30;99.90
13375;DHT22;6756;51.354;15.754;2022-08-18T03:59:48;16.30;99.90
13375;DHT22;6756;51.354;15.754;2022-08-18T04:03:55;16.30;99.90
13375;DHT22;6756;51.354;15.754;2022-08-18T04:07:56;16.40;99.90
13375;DHT22;6756;51.354;15.754;2022-08-18T04:12:01;16.40;99.90
13375;DHT22;6756;51.354;15.754;2022-08-18T04:16:02;16.50;99.90
13375;DHT22;6756;51.354;15.754;2022-08-18T04:20:03;16.60;99.90
13375;DHT22;6756;51.354;15.754;2022-08-18T04:24:05;16.70;99.90
13375;DHT22;6756;51.354;15.754;2022-08-18T04:28:06;16.80;99.90
13375;DHT22;6756;51.354;15.754;2022-08-18T04:32:07;16.90;99.90
13375;DHT22;6756;51.354;15.754;2022-08-18T04:36:14;17.20;99.90
13375;DHT22;6756;51.354;15.754;2022-08-18T04:40:15;17.40;91.90
13375;DHT22;6756;51.354;15.754;2022-08-18T04:44:16;17.70;1.00
13375;DHT22;6756;51.354;15.754;2022-08-18T04:48:17;17.90;99.90
13375;DHT22;6756;51.354;15.754;2022-08-18T04:52:18;18.20;90.50
13375;DHT22;6756;51.354;15.754;2022-08-18T04:56:41;18.40;99.90
13375;DHT22;6756;51.354;15.754;2022-08-18T05:00:43;18.60;99.90
13375;DHT22;6756;51.354;15.754;2022-08-18T05:04:45;18.80;99.90
13375;DHT22;6756;51.354;15.754;2022-08-18T05:08:46;19.00;99.90
13375;DHT22;6756;51.354;15.754;2022-08-18T05:12:47;19.20;99.90
13375;DHT22;6756;51.354;15.754;2022-08-18T05:16:48;19.30;1.00
13375;DHT22;6756;51.354;15.754;2022-08-18T05:20:52;19.50;99.90
13375;DHT22;6756;51.354;15.754;2022-08-18T05:24:52;19.70;15.70
13375;DHT22;6756;51.354;15.754;2022-08-18T05:28:54;19.90;99.90
13375;DHT22;6756;51.354;15.754;2022-08-18T05:32:54;20.10;1.00
13375;DHT22;6756;51.354;15.754;2022-08-18T05:37:21;20.30;1.00
13375;DHT22;6756;51.354;15.754;2022-08-18T05:41:35;20.50;99.90
13375;DHT22;6756;51.354;15.754;2022-08-18T05:45:39;20.80;1.00
13375;DHT22;6756;51.354;15.754;2022-08-18T05:49:43;20.90;1.00
13375;DHT22;6756;51.354;15.754;2022-08-18T05:53:47;21.20;99.90
13375;DHT22;6756;51.354;15.754;2022-08-18T05:58:14;21.30;99.90
13375;DHT22;6756;51.354;15.754;2022-08-18T06:02:20;21.50;1.00
13375;DHT22;6756;51.354;15.754;2022-08-18T06:06:25;21.60;99.90
13375;DHT22;6756;51.354;15.754;2022-08-18T06:10:29;21.70;99.90
13375;DHT22;6756;51.354;15.754;2022-08-18T06:14:30;21.80;99.90
13375;DHT22;6756;51.354;15.754;2022-08-18T06:23:41;22.00;99.90
13375;DHT22;6756;51.354;15.754;2022-08-18T06:27:39;22.10;99.90
13375;DHT22;6756;51.354;15.754;2022-08-18T06:32:06;22.20;99.90
13375;DHT22;6756;51.354;15.754;2022-08-18T06:40:46;22.70;99.90
13375;DHT22;6756;51.354;15.754;2022-08-18T06:44:51;23.10;14.10
13375;DHT22;6756;51.354;15.754;2022-08-18T06:48:55;23.50;1.00
13375;DHT22;6756;51.354;15.754;2022-08-18T06:53:05;23.80;1.00
13375;DHT22;6756;51.354;15.754;2022-08-18T06:57:29;24.00;99.90
13375;DHT22;6756;51.354;15.754;2022-08-18T07:01:31;24.20;99.90
13375;DHT22;6756;51.354;15.754;2022-08-18T07:05:34;24.30;99.90
13375;DHT22;6756;51.354;15.754;2022-08-18T07:09:35;24.40;99.90
13375;DHT22;6756;51.354;15.754;2022-08-18T07:13:41;24.50;99.90
13375;DHT22;6756;51.354;15.754;2022-08-18T07:17:48;24.50;1.00
13375;DHT22;6756;51.354;15.754;2022-08-18T07:22:15;24.50;1.00
13375;DHT22;6756;51.354;15.754;2022-08-18T07:26:17;24.60;1.00
13375;DHT22;6756;51.354;15.754;2022-08-18T07:34:26;25.00;1.00
13375;DHT22;6756;51.354;15.754;2022-08-18T07:38:37;25.00;1.00
13375;DHT22;6756;51.354;15.754;2022-08-18T07:47:17;25.40;1.00
13375;DHT22;6756;51.354;15.754;2022-08-18T07:51:47;26.10;99.90
13375;DHT22;6756;51.354;15.754;2022-08-18T07:55:52;26.90;99.90
13375;DHT22;6756;51.354;15.754;2022-08-18T08:08:43;28.30;37.80
13375;DHT22;6756;51.354;15.754;2022-08-18T08:17:29;29.00;1.00
13375;DHT22;6756;51.354;15.754;2022-08-18T08:21:31;29.50;1.00
13375;DHT22;6756;51.354;15.754;2022-08-18T08:25:53;29.90;1.00
13375;DHT22;6756;51.354;15.754;2022-08-18T08:30:22;30.10;1.00
13375;DHT22;6756;51.354;15.754;2022-08-18T08:34:46;30.10;1.00
13375;DHT22;6756;51.354;15.754;2022-08-18T08:39:03;30.20;1.00
13375;DHT22;6756;51.354;15.754;2022-08-18T08:43:18;30.10;1.00
13375;DHT22;6756;51.354;15.754;2022-08-18T08:47:25;30.40;1.00
13375;DHT22;6756;51.354;15.754;2022-08-18T08:51:39;30.70;1.00
13375;DHT22;6756;51.354;15.754;2022-08-18T08:55:48;30.90;1.00
13375;DHT22;6756;51.354;15.754;2022-08-18T08:59:50;30.80;1.00
13375;DHT22;6756;51.354;15.754;2022-08-18T09:04:17;30.90;1.00
13375;DHT22;6756;51.354;15.754;2022-08-18T09:08:38;30.80;1.00
13375;DHT22;6756;51.354;15.754;2022-08-18T09:25:53;31.20;1.00
13375;DHT22;6756;51.354;15.754;2022-08-18T09:29:57;31.20;1.00
13375;DHT22;6756;51.354;15.754;2022-08-18T09:38:26;31.10;1.00
13375;DHT22;6756;51.354;15.754;2022-08-18T09:47:05;31.30;1.00
13375;DHT22;6756;51.354;15.754;2022-08-18T10:03:32;31.70;1.00
13375;DHT22;6756;51.354;15.754;2022-08-18T10:07:35;31.90;1.00
13375;DHT22;6756;51.354;15.754;2022-08-18T10:11:45;32.00;1.00
13375;DHT22;6756;51.354;15.754;2022-08-18T10:16:14;32.10;1.00
13375;DHT22;6756;51.354;15.754;2022-08-18T10:24:54;32.10;1.00
13375;DHT22;6756;51.354;15.754;2022-08-18T10:28:58;32.30;1.00
13375;DHT22;6756;51.354;15.754;2022-08-18T10:33:02;32.40;1.00
13375;DHT22;6756;51.354;15.754;2022-08-18T10:41:30;32.40;1.00
13375;DHT22;6756;51.354;15.754;2022-08-18T10:45:34;32.60;1.00
13375;DHT22;6756;51.354;15.754;2022-08-18T10:49:36;32.60;1.00
13375;DHT22;6756;51.354;15.754;2022-08-18T10:53:53;32.70;1.00
13375;DHT22;6756;51.354;15.754;2022-08-18T11:06:46;32.80;1.00
13375;DHT22;6756;51.354;15.754;2022-08-18T11:10:48;32.90;1.00
13375;DHT22;6756;51.354;15.754;2022-08-18T11:15:03;32.90;1.00
13375;DHT22;6756;51.354;15.754;2022-08-18T11:19:17;32.90;1.00
13375;DHT22;6756;51.354;15.754;2022-08-18T11:23:18;32.90;1.00
13375;DHT22;6756;51.354;15.754;2022-08-18T11:27:23;33.00;1.00
13375;DHT22;6756;51.354;15.754;2022-08-18T11:31:24;33.20;1.00
13375;DHT22;6756;51.354;15.754;2022-08-18T11:35:33;33.30;1.00
13375;DHT22;6756;51.354;15.754;2022-08-18T11:39:42;33.30;1.00
13375;DHT22;6756;51.354;15.754;2022-08-18T11:43:55;33.20;1.00
13375;DHT22;6756;51.354;15.754;2022-08-18T11:52:29;33.40;1.00
13375;DHT22;6756;51.354;15.754;2022-08-18T11:56:32;33.50;1.00
13375;DHT22;6756;51.354;15.754;2022-08-18T12:04:41;33.50;1.00
13375;DHT22;6756;51.354;15.754;2022-08-18T12:08:55;33.50;1.00
13375;DHT22;6756;51.354;15.754;2022-08-18T12:12:57;33.50;1.00
13375;DHT22;6756;51.354;15.754;2022-08-18T12:16:59;33.70;1.00
13375;DHT22;6756;51.354;15.754;2022-08-18T12:21:03;33.50;1.00
13375;DHT22;6756;51.354;15.754;2022-08-18T12:25:12;33.50;1.00
13375;DHT22;6756;51.354;15.754;2022-08-18T12:29:14;33.50;1.00
13375;DHT22;6756;51.354;15.754;2022-08-18T12:33:17;33.60;1.00
13375;DHT22;6756;51.354;15.754;2022-08-18T12:37:21;33.80;1.00
13375;DHT22;6756;51.354;15.754;2022-08-18T12:41:22;33.90;1.00
13375;DHT22;6756;51.354;15.754;2022-08-18T12:45:23;33.80;1.00
13375;DHT22;6756;51.354;15.754;2022-08-18T12:49:25;33.90;1.00
13375;DHT22;6756;51.354;15.754;2022-08-18T12:53:26;33.90;1.00
13375;DHT22;6756;51.354;15.754;2022-08-18T12:57:28;33.90;1.00
13375;DHT22;6756;51.354;15.754;2022-08-18T13:01:29;33.90;1.00
13375;DHT22;6756;51.354;15.754;2022-08-18T13:05:30;33.90;1.00
13375;DHT22;6756;51.354;15.754;2022-08-18T13:09:33;34.00;1.00
13375;DHT22;6756;51.354;15.754;2022-08-18T13:13:34;34.00;1.00
13375;DHT22;6756;51.354;15.754;2022-08-18T13:17:36;33.80;1.00
13375;DHT22;6756;51.354;15.754;2022-08-18T13:21:38;33.70;1.00
13375;DHT22;6756;51.354;15.754;2022-08-18T13:25:45;33.70;1.00
13375;DHT22;6756;51.354;15.754;2022-08-18T13:29:46;33.60;1.00
13375;DHT22;6756;51.354;15.754;2022-08-18T13:33:49;33.40;1.00
13375;DHT22;6756;51.354;15.754;2022-08-18T13:37:50;33.20;1.00
13375;DHT22;6756;51.354;15.754;2022-08-18T13:41:52;32.90;1.00
13375;DHT22;6756;51.354;15.754;2022-08-18T13:45:56;32.70;1.00
13375;DHT22;6756;51.354;15.754;2022-08-18T13:49:57;32.60;1.00
13375;DHT22;6756;51.354;15.754;2022-08-18T13:53:59;32.70;1.00
13375;DHT22;6756;51.354;15.754;2022-08-18T13:58:00;32.80;1.00
13375;DHT22;6756;51.354;15.754;2022-08-18T14:02:05;32.90;1.00
13375;DHT22;6756;51.354;15.754;2022-08-18T14:06:07;33.10;1.00
13375;DHT22;6756;51.354;15.754;2022-08-18T14:10:09;33.20;1.00
13375;DHT22;6756;51.354;15.754;2022-08-18T14:14:10;33.20;1.00
13375;DHT22;6756;51.354;15.754;2022-08-18T14:18:11;33.10;1.00
13375;DHT22;6756;51.354;15.754;2022-08-18T14:22:12;33.20;1.00
13375;DHT22;6756;51.354;15.754;2022-08-18T14:26:31;33.20;1.00
13375;DHT22;6756;51.354;15.754;2022-08-18T14:30:51;33.40;1.00
13375;DHT22;6756;51.354;15.754;2022-08-18T14:34:52;33.80;1.00
13375;DHT22;6756;51.354;15.754;2022-08-18T14:38:53;33.80;1.00
13375;DHT22;6756;51.354;15.754;2022-08-18T14:42:54;33.90;1.00
13375;DHT22;6756;51.354;15.754;2022-08-18T14:46:55;34.00;1.00
13375;DHT22;6756;51.354;15.754;2022-08-18T14:51:00;34.10;1.00
13375;DHT22;6756;51.354;15.754;2022-08-18T14:55:01;34.10;1.00
13375;DHT22;6756;51.354;15.754;2022-08-18T14:59:02;34.10;1.00
13375;DHT22;6756;51.354;15.754;2022-08-18T15:03:06;33.80;1.00
13375;DHT22;6756;51.354;15.754;2022-08-18T15:07:07;33.70;1.00
13375;DHT22;6756;51.354;15.754;2022-08-18T15:11:09;33.60;1.00
13375;DHT22;6756;51.354;15.754;2022-08-18T15:15:12;33.30;1.00
13375;DHT22;6756;51.354;15.754;2022-08-18T15:19:13;33.10;1.00
13375;DHT22;6756;51.354;15.754;2022-08-18T15:23:14;32.80;1.00
13375;DHT22;6756;51.354;15.754;2022-08-18T15:27:35;32.60;1.00
13375;DHT22;6756;51.354;15.754;2022-08-18T15:31:40;32.60;1.00
13375;DHT22;6756;51.354;15.754;2022-08-18T15:35:41;32.60;1.00
13375;DHT22;6756;51.354;15.754;2022-08-18T15:39:42;32.50;1.00
13375;DHT22;6756;51.354;15.754;2022-08-18T15:43:43;32.50;1.00
13375;DHT22;6756;51.354;15.754;2022-08-18T15:47:44;32.60;1.00
13375;DHT22;6756;51.354;15.754;2022-08-18T15:51:47;32.70;1.00
13375;DHT22;6756;51.354;15.754;2022-08-18T15:55:48;33.00;1.00
13375;DHT22;6756;51.354;15.754;2022-08-18T15:59:49;33.20;1.00
13375;DHT22;6756;51.354;15.754;2022-08-18T16:03:52;33.30;1.00
13375;DHT22;6756;51.354;15.754;2022-08-18T16:07:55;33.30;1.00
13375;DHT22;6756;51.354;15.754;2022-08-18T16:11:57;33.20;1.00
13375;DHT22;6756;51.354;15.754;2022-08-18T16:15:58;32.90;1.00
13375;DHT22;6756;51.354;15.754;2022-08-18T16:20:00;32.70;1.00
13375;DHT22;6756;51.354;15.754;2022-08-18T16:24:01;32.30;1.00
13375;DHT22;6756;51.354;15.754;2022-08-18T16:28:02;32.00;1.00
13375;DHT22;6756;51.354;15.754;2022-08-18T16:32:04;31.80;1.00
13375;DHT22;6756;51.354;15.754;2022-08-18T16:36:07;31.60;1.00
13375;DHT22;6756;51.354;15.754;2022-08-18T16:40:09;31.40;1.00
13375;DHT22;6756;51.354;15.754;2022-08-18T16:44:11;31.20;1.00
13375;DHT22;6756;51.354;15.754;2022-08-18T16:48:12;31.00;1.00
13375;DHT22;6756;51.354;15.754;2022-08-18T16:52:14;30.90;1.00
13375;DHT22;6756;51.354;15.754;2022-08-18T16:56:20;30.90;1.00
13375;DHT22;6756;51.354;15.754;2022-08-18T17:00:25;30.80;1.00
13375;DHT22;6756;51.354;15.754;2022-08-18T17:04:45;30.80;1.00
13375;DHT22;6756;51.354;15.754;2022-08-18T17:08:49;30.80;1.00
13375;DHT22;6756;51.354;15.754;2022-08-18T17:12:49;30.80;1.00
13375;DHT22;6756;51.354;15.754;2022-08-18T17:16:52;30.80;1.00
13375;DHT22;6756;51.354;15.754;2022-08-18T17:20:54;30.70;1.00
13375;DHT22;6756;51.354;15.754;2022-08-18T17:25:00;30.50;1.00
13375;DHT22;6756;51.354;15.754;2022-08-18T17:33:28;30.20;1.00
13375;DHT22;6756;51.354;15.754;2022-08-18T17:37:31;30.00;1.00
13375;DHT22;6756;51.354;15.754;2022-08-18T17:41:34;29.80;1.00
13375;DHT22;6756;51.354;15.754;2022-08-18T17:46:05;29.70;1.00
13375;DHT22;6756;51.354;15.754;2022-08-18T17:50:32;29.50;1.00
13375;DHT22;6756;51.354;15.754;2022-08-18T17:55:00;29.30;1.00
13375;DHT22;6756;51.354;15.754;2022-08-18T18:03:40;29.00;1.00
13375;DHT22;6756;51.354;15.754;2022-08-18T18:11:51;28.70;1.00
13375;DHT22;6756;51.354;15.754;2022-08-18T18:15:58;28.60;1.00
13375;DHT22;6756;51.354;15.754;2022-08-18T18:20:36;28.50;1.00
13375;DHT22;6756;51.354;15.754;2022-08-18T18:24:58;28.50;1.00
13375;DHT22;6756;51.354;15.754;2022-08-18T18:29:19;28.40;1.00
13375;DHT22;6756;51.354;15.754;2022-08-18T18:33:20;28.40;1.00
13375;DHT22;6756;51.354;15.754;2022-08-18T18:37:29;28.30;1.00
13375;DHT22;6756;51.354;15.754;2022-08-18T18:41:32;28.20;1.00
13375;DHT22;6756;51.354;15.754;2022-08-18T18:45:33;28.20;1.00
13375;DHT22;6756;51.354;15.754;2022-08-18T18:50:03;28.10;1.00
13375;DHT22;6756;51.354;15.754;2022-08-18T18:58:57;27.80;1.00
13375;DHT22;6756;51.354;15.754;2022-08-18T19:07:31;27.50;1.00
13375;DHT22;6756;51.354;15.754;2022-08-18T19:20:53;27.30;1.00
13375;DHT22;6756;51.354;15.754;2022-08-18T19:29:09;27.10;1.00
13375;DHT22;6756;51.354;15.754;2022-08-18T19:33:17;27.10;1.00
13375;DHT22;6756;51.354;15.754;2022-08-18T19:37:36;27.10;1.00
13375;DHT22;6756;51.354;15.754;2022-08-18T19:45:54;26.90;1.00
13375;DHT22;6756;51.354;15.754;2022-08-18T19:50:30;27.00;1.00
13375;DHT22;6756;51.354;15.754;2022-08-18T19:55:13;26.80;1.00
13375;DHT22;6756;51.354;15.754;2022-08-18T19:59:25;26.80;1.00
13375;DHT22;6756;51.354;15.754;2022-08-18T20:17:16;26.40;1.00
13375;DHT22;6756;51.354;15.754;2022-08-18T20:25:39;26.20;1.00
13375;DHT22;6756;51.354;15.754;2022-08-18T20:29:44;26.10;1.00
13375;DHT22;6756;51.354;15.754;2022-08-18T20:34:07;26.00;1.00
13375;DHT22;6756;51.354;15.754;2022-08-18T20:46:41;25.90;1.00
13375;DHT22;6756;51.354;15.754;2022-08-18T20:50:58;25.80;5.60
13375;DHT22;6756;51.354;15.754;2022-08-18T20:55:03;25.70;16.10
13375;DHT22;6756;51.354;15.754;2022-08-18T20:59:16;25.70;22.90
13375;DHT22;6756;51.354;15.754;2022-08-18T21:03:20;25.60;32.60
13375;DHT22;6756;51.354;15.754;2022-08-18T21:07:37;25.50;42.50
13375;DHT22;6756;51.354;15.754;2022-08-18T21:11:44;25.40;54.40
13375;DHT22;6756;51.354;15.754;2022-08-18T21:15:46;25.40;74.70
13375;DHT22;6756;51.354;15.754;2022-08-18T21:19:48;25.30;81.70
13375;DHT22;6756;51.354;15.754;2022-08-18T21:23:54;25.30;88.50
13375;DHT22;6756;51.354;15.754;2022-08-18T21:27:55;25.40;95.40
13375;DHT22;6756;51.354;15.754;2022-08-18T21:32:08;25.30;99.90
13375;DHT22;6756;51.354;15.754;2022-08-18T21:36:12;25.20;99.90
13375;DHT22;6756;51.354;15.754;2022-08-18T21:40:13;25.20;99.90
13375;DHT22;6756;51.354;15.754;2022-08-18T21:44:24;25.20;99.90
13375;DHT22;6756;51.354;15.754;2022-08-18T21:48:29;25.40;99.90
13375;DHT22;6756;51.354;15.754;2022-08-18T21:52:30;25.40;99.90
13375;DHT22;6756;51.354;15.754;2022-08-18T21:56:33;25.40;99.90
13375;DHT22;6756;51.354;15.754;2022-08-18T22:00:38;25.40;99.90
13375;DHT22;6756;51.354;15.754;2022-08-18T22:04:46;25.40;99.90
13375;DHT22;6756;51.354;15.754;2022-08-18T22:09:03;25.40;99.90
13375;DHT22;6756;51.354;15.754;2022-08-18T22:13:45;25.30;99.90
13375;DHT22;6756;51.354;15.754;2022-08-18T22:22:02;25.40;99.90
13375;DHT22;6756;51.354;15.754;2022-08-18T22:26:31;25.40;99.90
13375;DHT22;6756;51.354;15.754;2022-08-18T22:30:33;25.40;99.90
13375;DHT22;6756;51.354;15.754;2022-08-18T22:34:35;25.40;99.90
13375;DHT22;6756;51.354;15.754;2022-08-18T22:38:36;25.40;99.90
13375;DHT22;6756;51.354;15.754;2022-08-18T22:42:37;25.40;99.90
13375;DHT22;6756;51.354;15.754;2022-08-18T22:46:38;25.30;99.90
13375;DHT22;6756;51.354;15.754;2022-08-18T22:50:39;25.20;99.90
13375;DHT22;6756;51.354;15.754;2022-08-18T22:54:45;25.20;99.90
13375;DHT22;6756;51.354;15.754;2022-08-18T22:58:46;25.20;99.90
13375;DHT22;6756;51.354;15.754;2022-08-18T23:02:47;25.10;99.90
13375;DHT22;6756;51.354;15.754;2022-08-18T23:06:48;25.10;99.90
13375;DHT22;6756;51.354;15.754;2022-08-18T23:10:52;25.00;99.90
13375;DHT22;6756;51.354;15.754;2022-08-18T23:14:52;25.00;99.90
13375;DHT22;6756;51.354;15.754;2022-08-18T23:18:54;24.90;99.90
13375;DHT22;6756;51.354;15.754;2022-08-18T23:22:55;24.90;99.90
13375;DHT22;6756;51.354;15.754;2022-08-18T23:26:56;24.90;99.90
13375;DHT22;6756;51.354;15.754;2022-08-18T23:30:58;24.80;99.90
13375;DHT22;6756;51.354;15.754;2022-08-18T23:34:59;24.80;99.90
13375;DHT22;6756;51.354;15.754;2022-08-18T23:39:00;24.80;99.90
13375;DHT22;6756;51.354;15.754;2022-08-18T23:43:03;24.80;99.90
13375;DHT22;6756;51.354;15.754;2022-08-18T23:47:06;24.70;99.90
13375;DHT22;6756;51.354;15.754;2022-08-18T23:51:07;24.70;99.90
13375;DHT22;6756;51.354;15.754;2022-08-18T23:55:10;24.70;99.90
13375;DHT22;6756;51.354;15.754;2022-08-18T23:59:12;24.70;99.90
